Time;durP1;ratioP1;P1;durP2;ratioP2;P2;SDS_P1;SDS_P2;PMS_P1;PMS_P2;Temp;Humidity;BMP_temperature;BMP_pressure;BME280_temperature;BME280_humidity;BME280_pressure;Samples;Min_cycle;Max_cycle;Signal;HPM_P1;HPM_P2
2022/05/21 00:00:35;;;;;;;4.88;2.55;;;;;;;21.02;43.88;96685.22;10420423;28;97058;-69
2022/05/21 00:05:40;;;;;;;5.73;2.30;;;;;;;21.01;43.92;96684.38;10416824;28;97130;-70
2022/05/21 00:10:43;;;;;;;8.93;2.67;;;;;;;21.01;43.81;96689.69;10419856;27;96881;-69
2022/05/21 00:15:46;;;;;;;6.07;2.50;;;;;;;20.98;44.20;96689.28;10417406;28;96771;-69
2022/05/21 00:20:51;;;;;;;4.78;2.33;;;;;;;20.99;43.81;96696.22;10415218;28;96849;-69
2022/05/21 00:25:56;;;;;;;;;;;;;;;21.01;43.83;96702.97;10422228;27;96892;-69
2022/05/21 00:30:59;;;;;;;5.88;2.65;;;;;;;21.00;44.17;96701.34;10424336;27;96949;-69
2022/05/21 00:36:05;;;;;;;5.82;2.30;;;;;;;21.00;43.50;96692.53;10425832;27;96910;-69
2022/05/21 00:41:10;;;;;;;7.22;2.55;;;;;;;20.96;44.36;96681.50;10426631;27;96745;-68
2022/05/21 00:46:16;;;;;;;6.10;2.25;;;;;;;20.89;44.46;96691.31;10416231;27;97006;-69
2022/05/21 00:51:26;;;;;;;5.82;2.40;;;;;;;20.87;44.32;96693.34;10413065;28;99474;-69
2022/05/21 00:56:32;;;;;;;4.20;2.72;;;;;;;20.91;44.58;96695.41;10412521;28;99250;-69
2022/05/21 01:01:38;;;;;;;5.45;2.20;;;;;;;20.94;44.14;96694.97;10418387;27;97706;-69
2022/05/21 01:06:43;;;;;;;4.43;2.28;;;;;;;20.89;44.23;96683.34;10411943;28;99019;-69
2022/05/21 01:11:46;;;;;;;6.38;2.88;;;;;;;20.80;45.09;96687.22;10416911;27;96990;-69
2022/05/21 01:16:49;;;;;;;6.47;2.47;;;;;;;20.59;44.76;96686.31;10408276;27;97831;-69
2022/05/21 01:21:53;;;;;;;5.78;2.47;;;;;;;20.49;45.25;96685.88;10413559;27;98365;-69
2022/05/21 01:26:57;;;;;;;6.20;2.17;;;;;;;20.36;45.42;96679.50;10412849;27;97667;-68
2022/05/21 01:32:00;;;;;;;3.95;2.30;;;;;;;20.23;45.75;96670.69;10413254;27;97070;-69
2022/05/21 01:37:04;;;;;;;3.70;2.20;;;;;;;20.11;45.96;96667.75;10413060;27;96861;-69
2022/05/21 01:42:09;;;;;;;4.78;2.45;;;;;;;20.03;46.11;96660.00;10420506;27;96824;-69
2022/05/21 01:47:14;;;;;;;4.55;2.50;;;;;;;19.92;46.47;96650.75;10408411;27;97803;-69
2022/05/21 01:52:16;;;;;;;3.40;1.90;;;;;;;19.78;46.96;96655.13;10411373;28;98542;-69
2022/05/21 01:57:21;;;;;;;3.47;2.10;;;;;;;19.59;47.68;96657.47;10410911;28;97157;-69
2022/05/21 02:02:25;;;;;;;5.72;2.50;;;;;;;19.42;47.53;96658.78;10410559;27;98448;-69
2022/05/21 02:07:28;;;;;;;4.75;2.17;;;;;;;19.27;48.53;96660.72;10406556;28;98110;-69
2022/05/21 02:12:33;;;;;;;5.05;2.38;;;;;;;19.14;48.40;96661.41;10411368;28;98976;-69
2022/05/21 02:17:36;;;;;;;5.30;2.42;;;;;;;19.05;48.09;96650.13;10412633;28;100780;-69
2022/05/21 02:22:39;;;;;;;4.00;2.20;;;;;;;18.94;48.38;96650.66;10410304;27;98873;-69
2022/05/21 02:27:43;;;;;;;4.43;2.58;;;;;;;18.90;49.36;96641.44;10410743;27;97849;-69
2022/05/21 02:32:46;;;;;;;5.38;2.97;;;;;;;18.55;50.19;96642.13;10410352;27;96991;-68
2022/05/21 02:43:11;;;;;;;6.60;2.50;;;;;;;18.29;51.05;96624.13;10419118;27;99217;-69
2022/05/21 02:48:14;;;;;;;7.65;2.60;;;;;;;18.19;50.83;96626.28;10416567;27;99042;-68
2022/05/21 02:53:19;;;;;;;6.93;2.25;;;;;;;18.07;51.51;96628.56;10412275;27;97802;-68
2022/05/21 02:58:24;;;;;;;4.20;2.50;;;;;;;17.85;52.81;96622.41;10420170;27;97962;-68
2022/05/21 03:03:28;;;;;;;6.13;2.70;;;;;;;17.55;53.32;96633.75;10418494;27;98635;-68
2022/05/21 03:13:52;;;;;;;4.47;2.40;;;;;;;17.17;54.74;96623.25;10419557;27;96898;-69
2022/05/21 03:18:55;;;;;;;5.53;2.80;;;;;;;17.16;54.63;96620.78;10415171;28;97745;-68
2022/05/21 03:23:58;;;;;;;5.65;2.92;;;;;;;17.06;55.25;96628.13;10415784;27;99015;-69
2022/05/21 03:29:02;;;;;;;7.10;3.08;;;;;;;16.86;55.64;96626.00;10413576;27;97285;-68
2022/05/21 03:34:05;;;;;;;7.13;3.15;;;;;;;16.69;56.50;96624.47;10413532;28;99517;-68
2022/05/21 03:39:08;;;;;;;5.35;3.05;;;;;;;16.57;57.22;96618.78;10414741;27;97777;-68
2022/05/21 03:44:12;;;;;;;7.63;3.00;;;;;;;16.55;56.77;96629.50;10414223;27;99222;-68
2022/05/21 03:49:16;;;;;;;4.22;2.95;;;;;;;16.46;57.35;96625.28;10409098;28;97756;-68
2022/05/21 03:54:19;;;;;;;7.63;3.53;;;;;;;16.33;57.53;96620.59;10411940;28;97160;-69
2022/05/21 03:59:23;;;;;;;7.20;2.90;;;;;;;16.27;57.64;96621.28;10412214;28;98610;-68
2022/05/21 04:04:26;;;;;;;5.35;2.67;;;;;;;16.21;58.45;96622.81;10413359;28;96865;-68
2022/05/21 04:09:29;;;;;;;3.70;2.92;;;;;;;16.24;58.19;96627.75;10413996;27;98949;-68
2022/05/21 04:14:33;;;;;;;6.35;2.70;;;;;;;16.34;57.71;96630.13;10414130;27;96895;-69
2022/05/21 04:19:36;;;;;;;5.35;2.80;;;;;;;16.28;58.26;96627.41;10410170;28;97200;-68
2022/05/21 04:24:39;;;;;;;6.68;3.00;;;;;;;16.22;58.30;96624.47;10410282;28;98913;-69
2022/05/21 04:29:43;;;;;;;7.38;2.92;;;;;;;16.31;58.00;96632.28;10407180;28;97644;-69
2022/05/21 04:34:46;;;;;;;5.30;3.10;;;;;;;16.27;58.49;96628.38;10414074;28;97114;-69
2022/05/21 04:39:49;;;;;;;7.47;3.13;;;;;;;16.28;58.72;96632.66;10410327;27;99195;-69
2022/05/21 04:44:53;;;;;;;4.70;2.83;;;;;;;16.39;58.29;96624.34;10406739;28;98572;-68
2022/05/21 04:49:56;;;;;;;6.60;3.40;;;;;;;16.43;58.63;96623.00;10409269;27;99705;-68
2022/05/21 04:54:59;;;;;;;5.95;2.95;;;;;;;16.27;59.56;96625.75;10412784;28;96871;-68
2022/05/21 05:00:05;;;;;;;6.00;2.70;;;;;;;16.31;59.68;96629.66;10417684;27;98097;-69
2022/05/21 05:05:09;;;;;;;5.72;2.67;;;;;;;16.48;59.04;96633.03;10422085;27;96754;-69
2022/05/21 05:10:12;;;;;;;;;;;;;;;16.60;58.24;96621.88;10413897;27;97589;-69
2022/05/21 05:15:17;;;;;;;4.95;3.15;;;;;;;16.75;58.08;96621.16;10406637;28;97062;-68
2022/05/21 05:20:20;;;;;;;5.18;2.80;;;;;;;16.94;58.27;96620.66;10413447;27;96873;-68
2022/05/21 05:25:23;;;;;;;7.10;3.25;;;;;;;17.09;57.98;96625.16;10414689;27;96726;-68
2022/05/21 05:30:28;;;;;;;6.15;2.80;;;;;;;17.25;58.33;96626.81;10415276;28;96902;-69
2022/05/21 05:35:31;;;;;;;3.35;2.80;;;;;;;17.37;58.84;96631.50;10414701;27;96947;-68
2022/05/21 05:40:35;;;;;;;4.95;2.60;;;;;;;17.56;58.83;96637.22;10416684;27;96883;-68
2022/05/21 05:45:39;;;;;;;5.30;2.70;;;;;;;17.79;57.78;96629.22;10415480;27;96943;-68
2022/05/21 05:50:42;;;;;;;6.22;2.97;;;;;;;17.95;57.19;96636.16;10415440;27;96810;-68
2022/05/21 05:55:44;;;;;;;4.63;2.55;;;;;;;18.10;57.53;96623.72;10410704;28;96815;-68
2022/05/21 06:00:49;;;;;;;5.38;2.85;;;;;;;18.26;57.10;96629.81;10415962;28;96724;-68
2022/05/21 06:05:53;;;;;;;4.20;2.70;;;;;;;18.39;57.43;96637.88;10413845;28;97316;-68
2022/05/21 06:10:55;;;;;;;4.07;2.80;;;;;;;18.46;55.99;96633.50;10414932;27;98523;-68
2022/05/21 06:16:00;;;;;;;6.28;3.30;;;;;;;18.63;54.63;96633.25;10414976;28;96912;-68
2022/05/21 06:21:04;;;;;;;;;;;;;;;18.81;54.37;96625.69;10411179;28;96756;-69
2022/05/21 06:26:09;;;;;;;4.47;2.40;;;;;;;18.98;53.58;96628.91;10407258;27;98074;-68
2022/05/21 06:31:13;;;;;;;5.25;2.33;;;;;;;19.16;52.50;96636.38;10416501;27;98276;-68
2022/05/21 06:36:17;;;;;;;4.30;2.15;;;;;;;19.27;51.81;96635.03;10421903;27;96841;-68
2022/05/21 06:41:20;;;;;;;4.72;2.67;;;;;;;19.35;51.88;96631.41;10412863;27;98004;-68
2022/05/21 06:46:25;;;;;;;5.20;2.80;;;;;;;19.39;52.20;96628.19;10406317;27;96888;-68
2022/05/21 06:51:27;;;;;;;;;;;;;;;19.42;51.80;96624.34;10407623;27;98599;-68
2022/05/21 06:56:30;;;;;;;5.65;2.75;;;;;;;19.46;51.43;96622.94;10405481;27;103892;-68
2022/05/21 07:01:34;;;;;;;4.40;2.40;;;;;;;19.64;52.19;96625.06;10406969;27;98543;-68
2022/05/21 07:12:04;;;;;;;7.65;3.15;;;;;;;19.81;51.41;96620.28;10388431;27;99482;-68
2022/05/21 07:17:08;;;;;;;5.05;2.63;;;;;;;20.07;51.59;96619.59;10406154;27;96792;-67
2022/05/21 07:22:12;;;;;;;5.47;2.70;;;;;;;20.25;52.03;96618.22;10415407;27;98018;-67
2022/05/21 07:27:16;;;;;;;6.53;2.67;;;;;;;20.36;51.69;96618.47;10419830;27;96861;-67
2022/05/21 07:32:23;;;;;;;7.55;3.20;;;;;;;20.50;51.66;96607.91;10411230;27;97252;-66
2022/05/21 07:37:26;;;;;;;5.43;3.03;;;;;;;21.05;50.44;96613.06;10410636;27;100444;-69
2022/05/21 07:42:28;;;;;;;6.53;2.90;;;;;;;22.33;49.53;96598.44;10432341;27;96753;-69
2022/05/21 07:47:33;;;;;;;4.20;2.38;;;;;;;23.35;47.43;96599.16;10425837;27;97938;-69
2022/05/21 07:52:36;;;;;;;6.15;2.75;;;;;;;24.02;45.73;96593.09;10421344;27;97242;-70
2022/05/21 07:57:39;;;;;;;5.70;2.80;;;;;;;24.75;44.90;96591.31;10421401;27;97270;-70
2022/05/21 08:02:44;;;;;;;4.23;2.57;;;;;;;25.18;43.80;96584.91;10427911;27;96860;-70
2022/05/21 08:07:50;;;;;;;4.38;2.50;;;;;;;25.12;43.33;96583.13;10426339;27;96768;-70
2022/05/21 08:12:54;;;;;;;6.32;2.40;;;;;;;24.84;42.95;96573.91;10422940;27;97305;-70
2022/05/21 08:17:59;;;;;;;6.25;3.10;;;;;;;24.18;43.73;96569.53;10423623;27;98236;-69
2022/05/21 08:28:27;;;;;;;6.45;2.83;;;;;;;23.78;44.16;96565.47;10324990;28;96995;-69
2022/05/21 08:33:32;;;;;;;5.47;2.40;;;;;;;23.46;44.86;96562.13;10333526;28;102358;-69
2022/05/21 08:38:35;;;;;;;5.40;3.10;;;;;;;23.28;44.91;96552.28;10327164;28;97287;-69
2022/05/21 08:43:50;;;;;;;6.07;3.43;;;;;;;23.21;45.31;96554.97;10304054;28;97433;-69
2022/05/21 08:49:01;;;;;;;4.38;2.60;;;;;;;23.19;45.44;96538.41;10315918;28;97273;-69
2022/05/21 08:54:06;;;;;;;5.35;2.40;;;;;;;23.21;45.80;96532.84;10320076;28;96933;-69
2022/05/21 08:59:10;;;;;;;3.75;2.58;;;;;;;23.24;45.55;96533.22;10325339;28;96995;-69
2022/05/21 09:04:14;;;;;;;;;;;;;;;23.14;45.69;96524.91;10368516;28;96796;-69
2022/05/21 09:09:23;;;;;;;;;;;;;;;23.18;45.55;96523.44;10405490;28;97284;-69
2022/05/21 09:14:33;;;;;;;6.13;2.58;;;;;;;23.16;45.89;96520.19;10419529;28;96892;-69
2022/05/21 09:19:40;;;;;;;8.27;3.20;;;;;;;23.38;46.03;96521.41;10419303;27;102760;-70
2022/05/21 09:24:46;;;;;;;6.95;3.33;;;;;;;23.48;46.10;96501.41;10393041;28;96873;-70
2022/05/21 09:29:52;;;;;;;5.50;2.45;;;;;;;23.53;44.68;96489.06;10419227;27;96818;-70
2022/05/21 09:35:06;;;;;;;5.18;2.58;;;;;;;23.69;44.61;96492.97;10415795;27;96859;-70
2022/05/21 09:40:34;;;;;;;4.50;2.60;;;;;;;23.83;44.89;96487.44;10419030;28;96701;-69
2022/05/21 09:45:38;;;;;;;5.80;2.47;;;;;;;23.87;44.36;96477.94;10415429;28;97211;-69
2022/05/21 09:50:49;;;;;;;4.63;3.03;;;;;;;24.04;44.65;96478.94;10417690;27;96995;-70
2022/05/21 09:56:01;;;;;;;4.45;2.65;;;;;;;24.23;44.57;96470.91;10418752;27;96879;-70
2022/05/21 10:01:06;;;;;;;5.85;2.65;;;;;;;24.41;44.06;96468.13;10419548;28;96731;-70
2022/05/21 10:06:21;;;;;;;6.38;2.60;;;;;;;24.63;44.22;96470.28;10417818;28;96795;-70
2022/05/21 10:11:28;;;;;;;4.63;2.40;;;;;;;24.68;42.94;96460.50;10418108;27;96850;-70
2022/05/21 10:16:37;;;;;;;5.40;2.47;;;;;;;24.77;42.05;96460.97;10401922;28;98419;-70
2022/05/21 10:21:52;;;;;;;4.40;1.92;;;;;;;24.90;41.50;96453.81;10407302;28;96958;-70
2022/05/21 10:27:04;;;;;;;4.38;2.25;;;;;;;25.10;41.21;96459.59;10411714;27;97006;-70
2022/05/21 10:32:18;;;;;;;4.40;2.17;;;;;;;25.24;40.71;96444.91;10404950;28;96914;-70
2022/05/21 10:37:38;;;;;;;4.78;2.40;;;;;;;25.28;41.48;96437.22;10403352;28;96925;-70
2022/05/21 10:43:07;;;;;;;3.53;2.28;;;;;;;25.48;41.12;96428.81;10384672;28;96974;-70
2022/05/21 10:48:40;;;;;;;4.13;2.00;;;;;;;25.64;40.95;96421.94;10408858;27;96979;-70
2022/05/21 10:54:16;;;;;;;4.72;2.22;;;;;;;25.89;40.36;96413.53;10417165;27;97047;-70
2022/05/21 10:59:58;;;;;;;7.45;3.30;;;;;;;26.25;39.93;96416.84;10422770;27;97267;-70
2022/05/21 11:05:22;;;;;;;5.22;2.30;;;;;;;26.66;38.58;96398.75;10423733;28;97347;-70
2022/05/21 11:10:32;;;;;;;4.70;2.35;;;;;;;27.23;37.13;96410.22;10409771;27;96850;-70
2022/05/21 11:15:40;;;;;;;5.05;2.40;;;;;;;27.64;36.83;96405.34;10411074;28;96835;-70
2022/05/21 11:20:48;;;;;;;9.00;3.03;;;;;;;27.87;36.56;96398.88;10403211;27;96833;-70
2022/05/21 11:25:56;;;;;;;4.45;2.28;;;;;;;28.15;35.25;96405.03;10423683;27;96665;-70
2022/05/21 11:31:09;;;;;;;4.23;2.03;;;;;;;28.43;34.76;96412.00;10424011;28;97130;-70
2022/05/21 11:41:58;;;;;;;7.43;2.58;;;;;;;28.86;34.94;96398.56;10417693;27;97160;-70
2022/05/21 11:47:33;;;;;;;3.85;2.28;;;;;;;29.23;34.60;96393.13;10405739;27;96931;-70
2022/05/21 11:53:08;;;;;;;5.13;2.10;;;;;;;29.49;33.99;96398.59;10421531;28;100328;-70
2022/05/21 11:58:15;;;;;;;7.45;2.88;;;;;;;29.63;34.38;96390.88;10406232;28;96784;-70
2022/05/21 12:03:25;;;;;;;6.55;2.90;;;;;;;29.74;34.22;96377.13;10396439;28;96777;-70
2022/05/21 12:08:46;;;;;;;6.72;2.78;;;;;;;29.81;34.02;96381.47;10398203;28;96822;-70
2022/05/21 12:14:02;;;;;;;6.30;2.60;;;;;;;29.90;34.18;96369.09;10395832;28;96792;-71
2022/05/21 12:19:08;;;;;;;5.85;2.72;;;;;;;29.98;34.50;96373.16;10390414;28;96716;-70
2022/05/21 12:24:38;;;;;;;7.43;3.25;;;;;;;30.15;34.29;96364.78;10397757;28;101197;-71
2022/05/21 12:29:47;;;;;;;5.78;2.90;;;;;;;30.21;33.99;96364.53;10396362;28;96821;-70
2022/05/21 12:35:16;;;;;;;5.40;3.13;;;;;;;30.36;34.08;96355.66;10404423;28;96758;-70
2022/05/21 12:40:29;;;;;;;8.43;4.00;;;;;;;30.32;34.10;96362.63;10237337;28;97242;-70
2022/05/21 12:45:37;;;;;;;5.38;3.15;;;;;;;30.36;33.89;96371.81;10251520;28;97598;-70
2022/05/21 12:50:50;;;;;;;5.90;3.08;;;;;;;30.43;33.45;96358.88;10251531;28;97037;-70
2022/05/21 12:56:06;;;;;;;9.13;2.90;;;;;;;30.61;33.69;96352.09;10251633;28;97009;-71
2022/05/21 13:01:09;;;;;;;4.75;2.50;;;;;;;30.80;33.58;96344.25;10251739;28;96881;-70
2022/05/21 13:06:27;;;;;;;4.38;2.88;;;;;;;30.79;33.24;96348.03;10248050;28;98470;-71
2022/05/21 13:11:40;;;;;;;6.78;3.00;;;;;;;30.83;33.12;96349.09;10249687;28;96833;-71
2022/05/21 13:16:50;;;;;;;6.80;3.03;;;;;;;30.94;33.43;96335.56;10353214;27;100374;-71
2022/05/21 13:22:01;;;;;;;5.78;2.85;;;;;;;30.98;33.01;96336.63;10420225;28;96915;-71
2022/05/21 13:27:11;;;;;;;4.85;2.70;;;;;;;31.00;33.17;96332.59;10419549;27;97130;-71
2022/05/21 13:32:17;;;;;;;5.80;3.03;;;;;;;30.89;33.87;96330.19;10419396;28;96869;-70
2022/05/21 13:37:28;;;;;;;4.47;2.53;;;;;;;31.10;33.40;96331.72;10419350;27;96985;-70
2022/05/21 13:42:34;;;;;;;3.83;2.78;;;;;;;31.28;32.96;96316.00;10407200;28;96750;-70
2022/05/21 13:47:44;;;;;;;3.65;2.63;;;;;;;31.60;32.86;96318.25;10395230;28;96942;-70
2022/05/21 13:52:47;;;;;;;6.53;2.63;;;;;;;31.59;32.64;96312.06;10392056;28;96768;-70
2022/05/21 13:57:55;;;;;;;6.40;2.85;;;;;;;31.47;32.39;96308.91;10397554;28;96784;-71
2022/05/21 14:03:17;;;;;;;5.13;2.70;;;;;;;31.59;31.91;96312.06;10396779;28;100403;-70
2022/05/21 14:08:22;;;;;;;4.35;2.70;;;;;;;31.49;31.96;96301.31;10418554;28;96938;-70
2022/05/21 14:13:31;;;;;;;7.03;2.92;;;;;;;31.97;30.71;96296.13;10404701;28;99005;-70
2022/05/21 14:18:37;;;;;;;5.50;2.50;;;;;;;33.28;29.17;96295.25;10414787;28;96998;-70
2022/05/21 14:23:41;;;;;;;8.13;2.60;;;;;;;34.49;27.82;96303.66;10401247;27;97569;-69
2022/05/21 14:28:54;;;;;;;6.22;2.33;;;;;;;36.17;26.16;96283.16;10409729;27;98490;-70
2022/05/21 14:33:59;;;;;;;5.88;2.70;;;;;;;37.35;24.79;96285.38;10416751;27;98446;-70
2022/05/21 14:39:03;;;;;;;5.07;2.20;;;;;;;38.49;23.10;96277.84;10411832;28;98941;-70
2022/05/21 14:44:14;;;;;;;4.03;2.60;;;;;;;39.17;22.46;96274.31;10410652;27;98788;-70
2022/05/21 14:49:18;;;;;;;4.25;2.67;;;;;;;39.78;22.23;96266.47;10417445;27;97054;-70
2022/05/21 14:54:21;;;;;;;9.57;2.25;;;;;;;39.74;21.67;96271.00;10425219;27;98231;-70
2022/05/21 14:59:25;;;;;;;5.00;2.40;;;;;;;40.14;21.90;96267.72;10435642;27;96713;-70
2022/05/21 15:04:28;;;;;;;5.05;2.40;;;;;;;40.79;21.41;96261.66;10428878;27;97077;-70
2022/05/21 15:09:31;;;;;;;4.65;2.25;;;;;;;41.78;21.43;96258.69;10415845;28;97616;-70
2022/05/21 15:14:38;;;;;;;6.03;2.97;;;;;;;42.42;20.33;96242.34;10415628;28;97565;-70
2022/05/21 15:19:41;;;;;;;4.57;2.10;;;;;;;42.05;20.82;96245.31;10412845;27;98683;-69
2022/05/21 15:24:45;;;;;;;6.75;2.13;;;;;;;42.28;20.56;96238.09;10401508;28;98153;-71
2022/05/21 15:29:51;;;;;;;4.43;2.25;;;;;;;42.72;20.17;96229.78;10411662;27;96794;-71
2022/05/21 15:34:54;;;;;;;4.35;2.17;;;;;;;43.08;20.28;96230.59;10409033;27;98808;-71
2022/05/21 15:39:58;;;;;;;5.53;2.45;;;;;;;42.90;19.56;96229.38;10403710;27;104152;-71
2022/05/21 15:45:04;;;;;;;5.47;2.28;;;;;;;43.04;19.50;96226.94;10411651;27;97610;-71
2022/05/21 15:50:09;;;;;;;5.88;2.25;;;;;;;43.03;19.25;96217.13;10403828;27;96814;-71
2022/05/21 15:55:14;;;;;;;4.78;2.33;;;;;;;43.02;19.48;96209.22;10410968;28;106262;-71
2022/05/21 16:00:19;;;;;;;5.30;2.08;;;;;;;43.05;19.33;96209.28;10415749;27;96970;-71
2022/05/21 16:05:23;;;;;;;4.72;2.25;;;;;;;42.99;19.73;96191.50;10408393;27;96832;-71
2022/05/21 16:10:26;;;;;;;6.65;2.30;;;;;;;43.11;19.33;96180.38;10408070;28;96839;-71
2022/05/21 16:15:38;;;;;;;6.22;2.22;;;;;;;43.28;19.17;96178.38;10419205;27;98550;-71
2022/05/21 16:20:44;;;;;;;5.45;2.42;;;;;;;43.57;18.37;96176.19;10411544;28;97950;-71
2022/05/21 16:25:48;;;;;;;4.82;2.40;;;;;;;43.62;18.56;96156.63;10405923;27;96832;-70
2022/05/21 16:30:52;;;;;;;4.47;2.45;;;;;;;43.71;18.14;96162.72;10411192;27;96790;-70
2022/05/21 16:35:56;;;;;;;6.35;2.20;;;;;;;43.65;18.88;96164.16;10409942;28;97002;-70
2022/05/21 16:40:59;;;;;;;6.18;2.15;;;;;;;43.33;18.04;96154.13;10416881;28;101442;-70
2022/05/21 16:46:04;;;;;;;5.35;2.30;;;;;;;43.26;18.48;96150.47;10410669;27;96974;-70
2022/05/21 16:51:09;;;;;;;2.88;2.10;;;;;;;43.07;18.52;96146.53;10406110;27;98172;-70
2022/05/21 16:56:11;;;;;;;4.25;2.30;;;;;;;42.69;18.80;96137.09;10410023;27;96948;-71
2022/05/21 17:01:17;;;;;;;5.82;2.25;;;;;;;42.02;19.28;96135.13;10408814;27;97198;-70
2022/05/21 17:06:20;;;;;;;9.02;2.55;;;;;;;41.67;19.79;96129.50;10418785;28;96959;-70
2022/05/21 17:11:25;;;;;;;5.35;2.10;;;;;;;41.45;20.27;96133.63;10418431;27;96982;-70
2022/05/21 17:16:29;;;;;;;4.15;2.22;;;;;;;41.36;20.46;96127.47;10417387;28;96735;-70
2022/05/21 17:21:33;;;;;;;4.68;2.05;;;;;;;41.16;20.03;96124.59;10419118;27;97018;-71
2022/05/21 17:26:36;;;;;;;5.63;2.40;;;;;;;40.98;20.77;96129.56;10420477;27;97971;-71
2022/05/21 17:31:41;;;;;;;6.35;2.38;;;;;;;40.12;21.40;96127.72;10421544;27;96937;-71
2022/05/21 17:36:44;;;;;;;7.05;2.45;;;;;;;39.19;22.44;96130.81;10418486;27;96745;-70
2022/05/21 17:41:47;;;;;;;4.10;2.60;;;;;;;38.35;23.69;96119.03;10410960;28;96844;-70
2022/05/21 17:46:52;;;;;;;5.72;2.60;;;;;;;37.55;24.19;96121.22;10402135;27;97761;-70
2022/05/21 17:51:55;;;;;;;5.03;2.63;;;;;;;37.04;24.45;96112.00;10404903;28;97915;-70
2022/05/21 17:56:57;;;;;;;7.03;2.60;;;;;;;36.22;25.58;96117.97;10410659;28;97446;-70
2022/05/21 18:02:02;;;;;;;6.22;2.92;;;;;;;34.68;27.68;96118.28;10407452;28;97138;-70
2022/05/21 18:07:05;;;;;;;5.47;2.50;;;;;;;33.53;28.69;96111.81;10412846;27;96809;-70
2022/05/21 18:12:09;;;;;;;4.72;2.63;;;;;;;32.71;29.42;96113.91;10412154;27;97003;-70
2022/05/21 18:22:46;;;;;;;8.23;2.92;;;;;;;31.38;30.63;96118.91;10410244;27;97675;-70
2022/05/21 18:27:49;;;;;;;6.70;3.10;;;;;;;30.73;31.60;96106.41;10413612;27;96779;-70
2022/05/21 18:32:53;;;;;;;5.47;2.85;;;;;;;29.96;33.18;96109.47;10410500;28;96853;-70
2022/05/21 18:37:56;;;;;;;9.52;3.20;;;;;;;29.53;33.70;96111.69;10411145;27;97587;-70
2022/05/21 18:43:00;;;;;;;5.82;2.92;;;;;;;29.17;34.29;96103.66;10415140;28;96927;-70
2022/05/21 18:48:06;;;;;;;6.50;2.95;;;;;;;28.74;34.77;96100.38;10411022;28;97300;-70
2022/05/21 18:53:09;;;;;;;5.00;2.70;;;;;;;28.29;35.49;96109.94;10415991;27;96788;-70
2022/05/21 18:58:14;;;;;;;5.00;3.03;;;;;;;27.80;35.87;96103.81;10396633;27;96835;-70
2022/05/21 19:03:21;;;;;;;6.65;3.05;;;;;;;27.48;36.74;96099.31;10415093;27;97157;-70
2022/05/21 19:08:24;;;;;;;5.72;3.30;;;;;;;27.26;37.05;96115.50;10416064;27;96845;-69
2022/05/21 19:13:33;;;;;;;3.53;2.55;;;;;;;27.13;37.70;96110.59;10411685;27;96665;-70
2022/05/21 19:23:59;;;;;;;7.30;4.50;;;;;;;26.69;39.64;96111.53;10417563;28;96958;-70
2022/05/21 19:29:02;;;;;;;6.57;3.85;;;;;;;26.45;40.63;96120.91;10417258;27;96941;-70
2022/05/21 19:34:07;;;;;;;10.20;4.10;;;;;;;26.02;41.69;96122.53;10421407;28;97177;-70
2022/05/21 19:44:31;;;;;;;9.38;5.00;;;;;;;25.25;42.95;96120.38;10414013;28;98918;-70
2022/05/21 19:49:36;;;;;;;7.50;4.30;;;;;;;24.99;43.97;96121.00;10412949;28;98715;-70
2022/05/21 19:54:43;;;;;;;9.20;4.70;;;;;;;24.78;44.62;96114.47;10414081;27;98750;-69
2022/05/21 19:59:48;;;;;;;18.10;10.80;;;;;;;24.69;44.76;96127.41;10410239;28;96812;-70
2022/05/21 20:04:52;;;;;;;12.98;6.55;;;;;;;24.61;44.79;96125.97;10411519;27;98407;-70
2022/05/21 20:09:55;;;;;;;9.65;6.00;;;;;;;24.38;45.94;96131.38;10414386;28;97779;-69
2022/05/21 20:14:58;;;;;;;11.48;6.95;;;;;;;24.16;46.81;96129.38;10403937;28;98067;-69
2022/05/21 20:20:04;;;;;;;10.53;6.23;;;;;;;23.89;47.47;96129.03;10414830;27;96992;-70
2022/05/21 20:25:09;;;;;;;9.25;5.85;;;;;;;23.41;48.04;96132.78;10409000;27;97903;-69
2022/05/21 20:30:14;;;;;;;8.57;4.90;;;;;;;23.04;48.82;96141.75;10413390;27;97025;-70
2022/05/21 20:35:18;;;;;;;8.02;4.43;;;;;;;22.88;49.10;96139.75;10404604;27;96872;-69
2022/05/21 20:40:21;;;;;;;8.55;4.93;;;;;;;22.62;49.46;96147.88;10413237;27;96965;-69
2022/05/21 20:45:24;;;;;;;6.30;4.53;;;;;;;22.56;49.53;96129.34;10415623;27;97333;-69
2022/05/21 20:50:29;;;;;;;11.23;5.10;;;;;;;22.44;50.03;96130.09;10406719;27;96890;-69
2022/05/21 20:55:33;;;;;;;8.38;4.65;;;;;;;22.37;50.19;96132.03;10415791;27;97213;-69
2022/05/21 21:00:36;;;;;;;7.93;4.17;;;;;;;22.17;50.44;96128.81;10416105;27;99260;-69
2022/05/21 21:05:40;;;;;;;7.13;4.57;;;;;;;22.17;50.81;96129.63;10410425;27;97732;-70
2022/05/21 21:10:44;;;;;;;7.57;4.68;;;;;;;22.18;50.00;96125.94;10412083;27;96907;-69
2022/05/21 21:15:47;;;;;;;7.82;4.88;;;;;;;22.12;50.64;96126.00;10415861;27;96871;-69
2022/05/21 21:20:52;;;;;;;5.87;4.73;;;;;;;22.01;50.83;96120.41;10416529;28;96777;-69
2022/05/21 21:25:55;;;;;;;;;;;;;;;21.71;50.54;96124.81;10415143;27;97649;-69
2022/05/21 21:30:58;;;;;;;8.05;4.00;;;;;;;21.24;52.47;96126.06;10414000;27;97734;-70
2022/05/21 21:36:02;;;;;;;7.43;5.07;;;;;;;21.25;53.17;96121.56;10415720;28;97071;-70
2022/05/21 21:41:05;;;;;;;;;;;;;;;21.03;52.05;96119.28;10414167;28;96951;-70
2022/05/21 21:46:07;;;;;;;8.85;4.47;;;;;;;21.04;53.31;96125.41;10418673;27;96841;-69
2022/05/21 21:51:12;;;;;;;8.25;4.18;;;;;;;20.92;54.01;96122.63;10406202;27;96915;-69
2022/05/21 21:56:15;;;;;;;7.05;4.35;;;;;;;20.80;53.75;96127.00;10412553;28;98007;-69
2022/05/21 22:01:30;;;;;;;7.40;4.60;;;;;;;20.83;54.20;96127.41;10415989;27;96961;-69
2022/05/21 22:06:34;;;;;;;8.35;4.80;;;;;;;20.85;53.94;96122.69;10415581;28;96747;-69
2022/05/21 22:11:38;;;;;;;6.70;4.30;;;;;;;20.54;55.25;96128.78;10410521;28;96882;-69
2022/05/21 22:16:41;;;;;;;8.35;4.57;;;;;;;20.45;55.83;96122.09;10416965;27;96915;-69
2022/05/21 22:21:48;;;;;;;8.25;4.38;;;;;;;20.37;55.73;96126.63;10416004;28;96854;-69
2022/05/21 22:26:53;;;;;;;9.23;4.90;;;;;;;19.92;57.32;96117.84;10413598;27;97115;-69
2022/05/21 22:31:55;;;;;;;6.85;4.38;;;;;;;19.60;57.64;96118.50;10411088;28;97213;-69
2022/05/21 22:37:00;;;;;;;9.65;4.57;;;;;;;19.69;57.21;96107.69;10416032;27;97437;-69
2022/05/21 22:42:03;;;;;;;8.35;4.57;;;;;;;19.92;57.26;96100.09;10412300;28;96933;-69
2022/05/21 22:47:06;;;;;;;7.13;4.28;;;;;;;19.96;56.62;96093.34;10412397;27;97341;-69
2022/05/21 22:52:10;;;;;;;7.88;4.18;;;;;;;19.87;56.34;96099.09;10420478;27;96707;-69
2022/05/21 22:57:13;;;;;;;13.07;4.55;;;;;;;19.84;56.36;96100.34;10410901;28;98032;-69
2022/05/21 23:02:16;;;;;;;7.50;4.43;;;;;;;19.96;56.75;96103.16;10417957;28;98194;-69
2022/05/21 23:07:20;;;;;;;7.65;3.95;;;;;;;20.14;55.39;96099.81;10417231;28;97313;-69
2022/05/21 23:12:23;;;;;;;8.02;3.92;;;;;;;20.24;55.14;96100.16;10420295;27;96969;-69
2022/05/21 23:22:48;;;;;;;6.22;3.90;;;;;;;20.23;55.80;96097.72;10415757;27;97921;-69
2022/05/21 23:27:51;;;;;;;;;;;;;;;20.29;55.31;96094.22;10419286;27;96751;-69
2022/05/21 23:32:53;;;;;;;9.27;3.85;;;;;;;20.34;54.95;96097.06;10416982;27;98909;-69
2022/05/21 23:37:58;;;;;;;9.35;4.38;;;;;;;20.34;54.52;96095.22;10407160;27;96860;-69
2022/05/21 23:43:00;;;;;;;7.63;3.83;;;;;;;20.41;55.18;96081.06;10417689;27;97727;-69
2022/05/21 23:48:04;;;;;;;6.20;3.80;;;;;;;20.47;54.22;96075.75;10411970;27;98725;-69
2022/05/21 23:53:08;;;;;;;7.53;4.07;;;;;;;20.48;54.95;96063.31;10418388;27;99415;-69
2022/05/21 23:58:11;;;;;;;8.63;3.97;;;;;;;20.49;54.30;96057.75;10415562;27;98906;-69
